Time;durP1;ratioP1;P1;durP2;ratioP2;P2;SDS_P1;SDS_P2;PMS_P1;PMS_P2;Temp;Humidity;BMP_temperature;BMP_pressure;BME280_temperature;BME280_humidity;BME280_pressure;Samples;Min_cycle;Max_cycle;Signal;HPM_P1;HPM_P2
2022/05/26 00:00:13;;;;;;;1.83;1.10;;;18.20;81.50;;;18.36;81.89;100889.94;5027578;28;20045;-78
2022/05/26 00:02:40;;;;;;;4.50;1.40;;;18.20;82.20;;;18.27;84.43;100898.38;5005729;28;20136;-79
2022/05/26 00:05:08;;;;;;;2.95;1.52;;;18.90;83.50;;;18.34;83.16;100899.81;5031592;28;20053;-79
2022/05/26 00:07:35;;;;;;;1.85;1.05;;;18.20;83.20;;;18.31;83.52;100893.75;5016145;28;20167;-80
2022/05/26 00:10:03;;;;;;;1.45;1.25;;;18.20;83.80;;;18.30;84.09;100890.22;5031840;28;20442;-79
2022/05/26 00:12:32;;;;;;;2.42;1.00;;;18.10;84.20;;;18.30;84.36;100895.53;5012641;28;20048;-79
2022/05/26 00:14:59;;;;;;;4.00;0.85;;;18.10;84.30;;;18.21;83.56;100896.84;5029106;28;20488;-79
2022/05/26 00:17:26;;;;;;;1.73;0.85;;;18.10;84.40;;;18.26;83.06;100896.63;5014916;28;20033;-78
2022/05/26 00:19:53;;;;;;;2.33;1.10;;;18.00;84.70;;;18.26;83.75;100896.63;5031611;28;20124;-78
2022/05/26 00:22:20;;;;;;;1.42;0.90;;;18.00;85.30;;;18.26;83.86;100891.31;5009724;28;20411;-78
2022/05/26 00:24:47;;;;;;;2.80;1.10;;;18.00;85.40;;;18.26;83.22;100896.63;5031153;28;20088;-78
2022/05/26 00:27:14;;;;;;;0.98;0.75;;;18.00;85.10;;;18.27;83.48;100895.69;5029698;28;20051;-78
2022/05/26 00:29:41;;;;;;;3.42;1.10;;;19.10;86.20;;;18.18;83.77;100901.44;5028095;28;20064;-78
2022/05/26 00:32:09;;;;;;;1.05;0.60;;;18.00;85.80;;;18.24;81.80;100895.84;5035448;28;20398;-78
2022/05/26 00:34:36;;;;;;;3.10;1.15;;;18.00;85.30;;;18.16;83.84;100901.53;5029359;28;20038;-77
2022/05/26 00:37:09;;;;;;;2.47;1.00;;;18.00;85.90;;;18.21;83.55;100898.66;5014178;28;20049;-78
2022/05/26 00:39:38;;;;;;;1.63;0.95;;;18.00;85.90;;;18.10;85.21;100908.03;5029267;28;20034;-78
2022/05/26 00:42:07;;;;;;;1.55;0.80;;;17.90;86.30;;;18.17;83.72;100908.59;5028573;28;20068;-78
2022/05/26 00:44:35;;;;;;;1.05;0.98;;;17.90;86.10;;;18.12;85.31;100910.63;5022911;28;20049;-78
2022/05/26 00:47:10;;;;;;;10.02;1.73;;;17.90;87.00;;;18.19;83.97;100919.19;5030190;28;20059;-77
2022/05/26 00:50:01;;;;;;;1.95;1.10;;;17.90;86.60;;;18.04;84.30;100908.31;5034730;28;20749;-78
2022/05/26 00:52:42;;;;;;;2.45;0.90;;;17.90;86.60;;;18.09;83.11;100911.63;5011966;28;20037;-79
2022/05/26 00:55:33;;;;;;;1.35;0.80;;;17.90;86.30;;;18.12;81.12;100913.28;5030901;28;20049;-77
2022/05/26 00:58:10;;;;;;;1.08;0.80;;;17.90;86.10;;;18.15;79.84;100913.13;5016859;28;20159;-78
2022/05/26 01:00:41;;;;;;;1.40;0.90;;;17.90;85.70;;;18.10;81.81;100913.34;5030832;28;20054;-78
2022/05/26 01:03:25;;;;;;;2.03;0.90;;;17.90;86.10;;;18.10;83.51;100913.34;5027059;28;20046;-78
2022/05/26 01:05:56;;;;;;;1.45;0.90;;;17.90;86.60;;;18.14;83.94;100914.91;5011971;28;20057;-79
2022/05/26 01:08:46;;;;;;;1.70;1.00;;;18.30;87.20;;;18.14;83.80;100908.75;5021214;28;20049;-78
2022/05/26 01:11:16;;;;;;;4.45;1.30;;;17.90;87.30;;;18.04;86.01;100910.09;5014510;28;20048;-77
2022/05/26 01:14:15;;;;;;;2.88;0.95;;;17.90;87.60;;;18.03;87.57;100909.25;5014462;28;20040;-79
2022/05/26 01:16:56;;;;;;;2.42;0.90;;;17.90;88.00;;;18.00;87.94;100918.22;5010996;28;20053;-79
2022/05/26 01:19:47;;;;;;;2.45;0.93;;;17.90;88.20;;;18.01;89.44;100911.06;5017004;28;20041;-79
2022/05/26 01:23:10;;;;;;;2.67;1.23;;;17.80;88.90;;;17.93;90.17;100914.09;5025178;28;20052;-79
2022/05/26 01:26:11;;;;;;;2.58;0.90;;;16.20;88.30;;;17.92;91.58;100919.50;5041519;28;20053;-79
2022/05/26 01:29:18;;;;;;;2.78;1.25;;;17.70;89.50;;;17.94;91.18;100920.28;5026122;28;20041;-79
2022/05/26 01:32:08;;;;;;;4.00;1.00;;;17.70;90.00;;;17.86;92.86;100920.63;5024947;28;20033;-80
2022/05/26 01:34:54;;;;;;;1.60;1.10;;;17.70;90.10;;;17.90;92.62;100914.22;5023537;28;20049;-80
2022/05/26 01:37:48;;;;;;;1.67;1.00;;;17.70;90.10;;;17.89;92.60;100915.16;5027027;28;20076;-79
2022/05/26 01:40:38;;;;;;;4.03;1.00;;;17.70;90.30;;;17.85;93.70;100909.13;5027837;28;20045;-79
2022/05/26 01:43:27;;;;;;;2.42;0.98;;;17.70;90.40;;;17.83;93.08;100918.97;5027827;28;20045;-79
2022/05/26 01:46:16;;;;;;;1.70;1.10;;;17.70;90.40;;;17.85;93.18;100916.25;5023813;28;20115;-80
2022/05/26 01:48:53;;;;;;;1.63;1.23;;;17.60;90.40;;;17.82;93.01;100911.06;5028390;28;20055;-80
2022/05/26 01:51:42;;;;;;;3.45;0.80;;;17.70;90.50;;;17.83;93.20;100918.13;5000202;28;20045;-78
2022/05/26 01:54:36;;;;;;;1.73;0.80;;;17.60;90.60;;;17.79;92.93;100914.72;5003523;28;20053;-79
2022/05/26 01:57:18;;;;;;;2.90;1.00;;;17.60;90.50;;;17.69;94.53;100914.28;5009527;28;20050;-79
2022/05/26 02:00:00;;;;;;;1.30;0.65;;;17.60;90.50;;;17.65;94.41;100915.38;5009746;28;20051;-79
2022/05/26 02:02:41;;;;;;;5.75;1.40;;;17.60;90.60;;;17.66;94.39;100908.25;5011741;28;20446;-79
2022/05/26 02:05:17;;;;;;;2.13;0.80;;;17.50;90.60;;;17.64;94.62;100916.31;5026137;28;20042;-80
2022/05/26 02:08:03;;;;;;;2.05;0.85;;;17.50;90.70;;;17.65;93.87;100917.16;5030392;28;20041;-80
2022/05/26 02:10:59;;;;;;;1.45;0.68;;;17.70;90.70;;;17.62;94.22;100911.97;5024694;28;20045;-79
2022/05/26 02:13:41;;;;;;;3.05;1.13;;;17.50;90.70;;;17.54;95.63;100915.81;4993671;28;20052;-79
2022/05/26 02:16:18;;;;;;;3.95;0.95;;;17.40;90.80;;;17.55;95.09;100930.84;4997851;28;20719;-80
2022/05/26 02:19:02;;;;;;;2.72;0.95;;;17.40;90.80;;;17.49;95.38;100928.47;5031078;28;20409;-80
2022/05/26 02:21:46;;;;;;;3.17;0.85;;;17.40;90.90;;;17.46;96.77;100936.59;5028545;28;20050;-80
2022/05/26 02:24:27;;;;;;;2.10;0.90;;;17.40;91.00;;;17.50;96.67;100940.84;5031222;28;20558;-79
2022/05/26 02:26:54;;;;;;;2.55;0.98;;;18.00;91.30;;;17.43;96.53;100939.41;5026373;28;20057;-79
2022/05/26 02:32:10;;;;;;;1.33;0.90;;;18.20;91.40;;;17.44;96.61;100935.81;5029205;28;20042;-79
2022/05/26 02:34:40;;;;;;;3.92;1.23;;;17.30;91.20;;;17.37;97.53;100939.66;5030379;28;20725;-80
2022/05/26 02:37:09;;;;;;;3.08;0.80;;;17.20;91.20;;;17.34;97.89;100937.13;5028079;28;20041;-79
2022/05/26 02:39:36;;;;;;;0.88;0.70;;;18.90;91.70;;;17.32;97.23;100942.50;5041171;28;20054;-80
2022/05/26 02:42:04;;;;;;;1.52;1.00;;;18.70;91.60;;;17.31;97.08;100938.13;5010837;28;20054;-80
2022/05/26 02:44:33;;;;;;;2.50;0.93;;;17.20;91.30;;;17.29;97.39;100940.88;5026568;28;20049;-79
2022/05/26 02:47:15;;;;;;;2.47;0.80;;;17.20;91.30;;;17.37;96.89;100945.84;5027258;28;20124;-80
2022/05/26 02:50:19;;;;;;;1.13;0.80;;;17.20;91.30;;;17.41;96.54;100947.44;5032737;28;20082;-80
2022/05/26 02:53:13;;;;;;;1.83;0.95;;;17.20;91.30;;;17.33;97.13;100944.25;5033812;28;20051;-80
2022/05/26 02:56:17;;;;;;;4.25;1.00;;;17.20;91.50;;;17.30;96.18;100941.72;5033879;28;20042;-79
2022/05/26 02:59:29;;;;;;;1.38;1.00;;;15.90;90.90;;;17.26;96.00;100937.47;4998926;28;20676;-80
2022/05/26 03:02:31;;;;;;;2.75;0.98;;;17.20;91.20;;;17.23;96.90;100935.78;5021377;28;20637;-79
2022/05/26 03:05:04;;;;;;;2.08;1.23;;;18.10;91.50;;;17.26;95.75;100937.47;5009293;28;20049;-80
2022/05/26 03:07:34;;;;;;;3.33;1.27;;;17.10;91.30;;;17.19;96.56;100936.00;5031203;28;20075;-79
2022/05/26 03:10:05;;;;;;;2.30;0.90;;;17.40;91.30;;;17.20;97.01;100945.72;4997298;28;20046;-80
2022/05/26 03:12:35;;;;;;;4.50;1.08;;;17.10;91.30;;;17.25;95.96;100938.41;5015642;28;20414;-80
2022/05/26 03:15:06;;;;;;;1.95;0.80;;;17.10;91.40;;;17.20;96.78;100945.72;5014586;28;20417;-81
2022/05/26 03:17:34;;;;;;;1.60;0.60;;;17.10;91.40;;;17.19;96.19;100947.50;5031583;28;20046;-79
2022/05/26 03:20:03;;;;;;;2.03;0.90;;;18.10;91.50;;;17.17;96.46;100940.50;5014348;28;20433;-79
2022/05/26 03:22:30;;;;;;;3.05;1.02;;;17.00;91.30;;;17.09;96.55;100939.06;5014913;28;20049;-80
2022/05/26 03:24:57;;;;;;;2.38;0.93;;;17.00;91.40;;;17.07;97.01;100938.25;5012649;28;20052;-81
2022/05/26 03:27:25;;;;;;;0.82;0.65;;;17.10;91.30;;;17.05;97.31;100945.44;5027588;28;20517;-80
2022/05/26 03:29:51;;;;;;;1.75;0.90;;;17.00;91.40;;;17.09;96.82;100946.16;5027068;28;20049;-79
2022/05/26 03:32:19;;;;;;;1.92;1.15;;;17.00;91.40;;;17.09;96.81;100948.81;5013193;28;20045;-80
2022/05/26 03:43:05;;;;;;;1.95;0.80;;;16.90;91.40;;;17.06;97.00;100962.22;5034933;28;20054;-79
2022/05/26 03:45:34;;;;;;;7.07;1.85;;;16.90;91.40;;;17.00;97.89;100958.03;4987815;28;20080;-79
2022/05/26 03:48:02;;;;;;;3.58;0.90;;;16.90;91.50;;;16.93;98.80;100960.03;4993964;28;20045;-79
2022/05/26 03:50:30;;;;;;;3.53;1.00;;;16.90;91.50;;;17.00;98.14;100968.66;5016669;28;20060;-80
2022/05/26 03:52:57;;;;;;;3.90;1.10;;;17.50;91.70;;;16.95;99.08;100965.31;5022022;28;20052;-80
2022/05/26 03:55:25;;;;;;;2.05;0.75;;;16.90;91.60;;;17.00;98.99;100963.34;5010156;28;20041;-80
2022/05/26 03:57:53;;;;;;;2.17;1.00;;;16.90;91.70;;;16.97;99.23;100964.31;5027299;28;20125;-80
2022/05/26 04:00:23;;;;;;;2.15;0.80;;;16.90;91.80;;;16.97;100.00;100961.66;5008711;28;20045;-79
2022/05/26 04:02:51;;;;;;;1.55;1.05;;;16.90;91.80;;;16.99;100.00;100969.59;5023054;28;20068;-78
2022/05/26 04:05:19;;;;;;;1.70;0.98;;;16.90;91.90;;;16.96;100.00;100973.22;5019012;28;20129;-79
2022/05/26 04:07:46;;;;;;;4.28;1.85;;;18.50;92.40;;;16.98;100.00;100981.13;5002371;28;20053;-79
2022/05/26 04:10:13;;;;;;;2.28;0.93;;;19.10;92.60;;;16.94;100.00;100974.22;4998124;28;20883;-79
2022/05/26 04:12:44;;;;;;;2.70;0.70;;;16.90;92.00;;;16.99;100.00;100978.44;4996078;28;20052;-79
2022/05/26 04:15:14;;;;;;;2.30;0.77;;;16.80;92.10;;;16.99;100.00;100970.47;5008833;28;20069;-79
2022/05/26 04:17:41;;;;;;;3.22;0.70;;;17.70;92.40;;;16.94;100.00;100969.78;5025544;28;20443;-78
2022/05/26 04:20:12;;;;;;;2.72;1.10;;;16.90;92.20;;;16.94;100.00;100992.81;5026011;28;20049;-78
2022/05/26 04:22:39;;;;;;;5.60;2.05;;;16.90;92.30;;;16.89;100.00;100990.34;5025557;28;20052;-79
2022/05/26 04:25:08;;;;;;;3.47;0.90;;;16.90;92.30;;;16.89;100.00;100984.19;5025407;28;20042;-78
2022/05/26 04:27:36;;;;;;;2.88;0.90;;;16.80;92.30;;;16.86;100.00;100979.84;5022133;28;20059;-80
2022/05/26 04:30:07;;;;;;;0.80;0.80;;;17.70;92.50;;;16.92;100.00;100984.91;4995356;28;20148;-80
2022/05/26 04:32:34;;;;;;;1.38;0.70;;;16.80;92.40;;;16.95;100.00;100984.78;5005929;28;20054;-81
2022/05/26 04:35:02;;;;;;;4.15;0.90;;;16.80;92.40;;;16.91;100.00;100985.81;5012216;28;20562;-80
2022/05/26 04:37:30;;;;;;;4.25;1.13;;;17.40;92.60;;;16.95;100.00;100979.47;5028621;28;20530;-79
2022/05/26 04:39:58;;;;;;;1.17;0.98;;;16.90;92.40;;;16.93;100.00;100985.78;5008851;28;20045;-79
2022/05/26 04:42:28;;;;;;;1.60;0.85;;;18.10;92.70;;;16.94;100.00;100988.38;5028636;28;20045;-79
2022/05/26 04:44:56;;;;;;;6.03;1.20;;;16.90;92.40;;;16.89;100.00;100990.34;5029402;28;20523;-78
2022/05/26 04:47:23;;;;;;;4.40;1.10;;;16.80;92.40;;;16.87;100.00;100995.75;5012363;28;20125;-79
2022/05/26 04:49:50;;;;;;;2.17;0.80;;;16.80;92.50;;;16.90;100.00;101002.69;4992635;28;20049;-80
2022/05/26 04:52:21;;;;;;;1.45;0.80;;;16.80;92.50;;;16.95;100.00;100999.84;5004902;28;20041;-79
2022/05/26 04:54:49;;;;;;;3.50;1.10;;;16.90;92.60;;;16.96;100.00;100998.94;5009257;28;20042;-80
2022/05/26 04:57:20;;;;;;;1.55;0.77;;;16.80;92.80;;;16.94;100.00;100992.81;5023489;28;20049;-80
2022/05/26 04:59:48;;;;;;;2.28;0.80;;;18.10;93.10;;;16.83;100.00;100991.44;5025227;28;20072;-78
2022/05/26 05:02:18;;;;;;;1.50;0.90;;;17.20;92.80;;;16.95;100.00;101002.53;5009247;28;20132;-79
2022/05/26 05:04:48;;;;;;;4.80;0.80;;;17.00;92.80;;;16.99;100.00;101006.81;5022451;28;20125;-77
2022/05/26 05:07:17;;;;;;;2.80;1.13;;;16.90;92.80;;;17.01;100.00;101011.16;5029052;28;20048;-79
2022/05/26 05:09:46;;;;;;;1.73;0.90;;;16.90;92.60;;;17.03;100.00;101019.06;5018114;28;20042;-78
2022/05/26 05:12:20;;;;;;;1.52;0.90;;;16.90;92.70;;;17.09;100.00;101018.81;5023977;28;20026;-80
2022/05/26 05:14:52;;;;;;;0.75;0.75;;;17.00;92.60;;;17.12;100.00;101025.81;5007770;28;20081;-77
2022/05/26 05:17:21;;;;;;;1.75;1.00;;;17.00;92.50;;;17.10;100.00;101027.66;5030193;28;20074;-80
2022/05/26 05:19:49;;;;;;;2.77;1.00;;;17.40;92.40;;;17.15;100.00;101026.50;5019536;28;20064;-79
2022/05/26 05:22:38;;;;;;;1.38;1.00;;;17.00;92.30;;;17.15;100.00;101036.31;5025015;28;20048;-79
2022/05/26 05:25:18;;;;;;;2.85;0.80;;;17.10;92.40;;;17.13;100.00;101043.47;4998229;28;20046;-79
2022/05/26 05:27:54;;;;;;;3.90;0.93;;;17.10;92.40;;;17.19;100.00;101034.38;5007416;28;20049;-78
2022/05/26 05:30:32;;;;;;;1.42;0.98;;;17.10;92.50;;;17.29;100.00;101033.06;5022155;28;20049;-79
2022/05/26 05:33:47;;;;;;;4.00;1.83;;;17.10;92.50;;;17.31;100.00;101041.00;5026193;28;20070;-81
2022/05/26 05:36:20;;;;;;;2.90;1.67;;;17.10;92.30;;;17.26;100.00;101049.16;5007091;28;20581;-80
2022/05/26 05:38:47;;;;;;;5.38;1.15;;;17.10;92.40;;;17.34;100.00;101049.72;5045280;28;20056;-79
2022/05/26 05:41:15;;;;;;;1.10;0.90;;;17.10;92.40;;;17.36;100.00;101044.31;5010840;28;20042;-79
2022/05/26 05:43:42;;;;;;;1.30;0.93;;;17.40;92.50;;;17.42;100.00;101044.06;5007982;28;20057;-79
2022/05/26 05:46:11;;;;;;;3.50;0.98;;;17.20;92.40;;;17.44;100.00;101053.69;5016713;28;20136;-79
2022/05/26 05:48:44;;;;;;;1.58;0.98;;;18.20;92.50;;;17.40;100.00;101062.75;4997988;28;20053;-82
2022/05/26 05:51:12;;;;;;;1.90;0.80;;;17.70;92.40;;;17.37;100.00;101052.25;5031348;28;20063;-81
2022/05/26 05:53:39;;;;;;;2.75;1.00;;;17.40;92.40;;;17.47;100.00;101059.81;5034218;28;20103;-81
2022/05/26 05:56:07;;;;;;;3.70;0.98;;;17.30;92.40;;;17.46;100.00;101060.75;5030681;28;20109;-80
2022/05/26 05:58:34;;;;;;;2.33;1.00;;;17.40;92.50;;;17.62;100.00;101074.28;4982709;28;20053;-81
2022/05/26 06:01:01;;;;;;;2.33;1.00;;;17.40;92.40;;;17.41;100.00;101076.91;4997172;28;20481;-80
2022/05/26 06:03:34;;;;;;;3.88;0.90;;;17.40;92.40;;;17.39;100.00;101071.66;5010315;28;20068;-81
2022/05/26 06:06:05;;;;;;;2.83;1.10;;;17.50;92.20;;;17.52;100.00;101085.31;5015292;28;20096;-80
2022/05/26 06:08:32;;;;;;;4.93;1.10;;;17.40;92.30;;;17.53;100.00;101081.72;5030025;28;20049;-80
2022/05/26 06:10:59;;;;;;;2.03;0.90;;;17.40;92.40;;;17.69;100.00;101089.03;5011763;28;20140;-79
2022/05/26 06:13:27;;;;;;;1.67;0.90;;;17.50;92.40;;;17.75;100.00;101101.22;5028655;28;20050;-76
2022/05/26 06:15:57;;;;;;;1.83;0.95;;;17.50;92.50;;;17.63;100.00;101082.19;5016927;28;20084;-80
2022/05/26 06:18:24;;;;;;;2.22;0.90;;;17.60;92.40;;;17.66;100.00;101084.75;5029828;28;20534;-79
2022/05/26 06:21:00;;;;;;;2.15;1.05;;;17.60;92.50;;;17.93;100.00;101095.09;5028410;28;20533;-79
2022/05/26 06:23:28;;;;;;;1.02;0.80;;;17.60;92.40;;;17.87;100.00;101103.38;5014400;28;20056;-80
2022/05/26 06:25:55;;;;;;;1.40;0.85;;;17.70;92.70;;;17.90;100.00;101100.56;5019838;28;20372;-78
2022/05/26 06:31:09;;;;;;;2.35;1.00;;;17.80;92.40;;;17.92;100.00;101100.50;5042976;28;20700;-81
2022/05/26 06:37:13;;;;;;;2.05;1.25;;;17.90;92.40;;;18.10;100.00;101120.16;5012569;28;20046;-80
2022/05/26 06:39:28;;;;;;;1.25;1.08;;;17.90;92.40;;;17.98;100.00;101121.53;5017479;28;20041;-81
2022/05/26 06:42:07;;;;;;;2.35;1.33;;;17.90;92.20;;;17.92;100.00;101129.81;5010730;28;20489;-79
2022/05/26 06:44:43;;;;;;;1.83;1.00;;;18.00;92.30;;;17.93;100.00;101127.06;5032091;28;20160;-80
2022/05/26 06:47:21;;;;;;;5.20;1.63;;;17.90;92.20;;;18.01;100.00;101129.38;5016163;28;20601;-79
2022/05/26 06:49:49;;;;;;;1.52;1.00;;;17.90;92.40;;;18.15;100.00;101139.50;5003838;28;20041;-80
2022/05/26 06:52:21;;;;;;;2.78;0.90;;;17.90;92.50;;;18.13;100.00;101122.72;5011204;28;20063;-79
2022/05/26 06:54:49;;;;;;;3.20;1.20;;;18.00;92.30;;;18.13;100.00;101128.88;5027023;28;20037;-82
2022/05/26 06:57:16;;;;;;;1.65;0.90;;;18.00;92.30;;;18.23;100.00;101133.81;4996415;28;20037;-79
2022/05/26 06:59:43;;;;;;;3.95;1.20;;;18.20;92.20;;;18.22;100.00;101138.28;5041547;28;20068;-79
2022/05/26 07:02:13;;;;;;;1.63;1.08;;;18.30;92.40;;;18.18;100.00;101135.81;5012230;28;20124;-79
2022/05/26 07:04:42;;;;;;;3.58;1.10;;;18.10;92.10;;;18.18;100.00;101135.81;5028379;28;20076;-80
2022/05/26 07:07:13;;;;;;;2.13;1.08;;;18.10;92.30;;;18.26;100.00;101137.22;5026301;28;20737;-77
2022/05/26 07:09:41;;;;;;;2.88;1.40;;;18.10;92.20;;;18.19;100.00;101132.25;5027809;28;20168;-81
2022/05/26 07:12:09;;;;;;;1.98;1.08;;;18.30;92.20;;;18.27;100.00;101136.28;5012840;28;20060;-80
2022/05/26 07:14:37;;;;;;;2.17;0.90;;;18.20;92.20;;;18.21;100.00;101139.22;5008443;28;20049;-78
2022/05/26 07:17:04;;;;;;;2.85;1.02;;;18.20;92.00;;;18.33;100.00;101147.59;5022578;28;21219;-77
2022/05/26 07:19:34;;;;;;;1.42;0.90;;;19.80;92.50;;;18.49;100.00;101139.78;5027132;28;20713;-77
2022/05/26 07:22:02;;;;;;;2.25;1.17;;;18.30;92.20;;;18.40;100.00;101141.03;5028930;28;20049;-76
2022/05/26 07:24:29;;;;;;;4.20;1.10;;;18.30;92.10;;;18.49;100.00;101150.44;5029430;28;20705;-80
2022/05/26 07:26:56;;;;;;;1.90;1.13;;;18.40;92.10;;;18.42;100.00;101140.06;5050305;28;20708;-84
2022/05/26 07:29:28;;;;;;;3.17;1.13;;;18.40;92.10;;;18.64;100.00;101152.41;4994554;28;20141;-79
2022/05/26 07:31:56;;;;;;;1.88;0.90;;;18.40;92.00;;;18.70;99.98;101137.94;4993800;28;20056;-82
2022/05/26 07:34:23;;;;;;;3.85;0.98;;;18.50;92.00;;;18.83;100.00;101141.75;5009377;28;20096;-86
2022/05/26 07:42:25;;;;;;;2.10;0.95;;;18.80;91.90;;;18.96;99.29;101146.53;5008635;28;20053;-83
2022/05/26 07:44:54;;;;;;;;;;;18.80;91.80;;;19.04;97.86;101141.72;5014830;28;20046;-81
2022/05/26 07:47:22;;;;;;;2.80;1.42;;;18.70;91.60;;;19.03;99.31;101139.13;5031852;28;19947;-81
2022/05/26 07:49:50;;;;;;;1.70;1.13;;;18.90;91.80;;;19.09;96.98;101144.16;5013617;28;20057;-81
2022/05/26 07:52:18;;;;;;;3.75;1.15;;;18.90;91.80;;;19.27;100.00;101151.28;5028898;28;20493;-78
2022/05/26 07:54:46;;;;;;;7.60;1.52;;;19.00;91.90;;;19.03;93.91;101150.66;5027723;28;20671;-76
2022/05/26 07:57:25;;;;;;;2.08;1.00;;;19.10;91.10;;;19.14;93.89;101152.84;5032050;28;20128;-77
2022/05/26 07:59:58;;;;;;;3.45;1.17;;;19.10;91.00;;;18.96;94.63;101151.88;5008870;28;20045;-78
2022/05/26 08:02:26;;;;;;;4.15;1.05;;;19.00;90.90;;;19.28;94.80;101154.81;5007472;28;20121;-76
2022/05/26 08:04:53;;;;;;;1.80;1.15;;;19.00;91.20;;;19.33;93.18;101157.28;5008323;28;20140;-77
2022/05/26 08:07:21;;;;;;;2.17;0.98;;;19.10;91.10;;;19.47;91.50;101165.47;5020649;28;20062;-76
2022/05/26 08:09:49;;;;;;;1.40;1.10;;;19.20;90.90;;;19.35;90.37;101155.41;5029610;28;20200;-81
2022/05/26 08:12:17;;;;;;;2.35;0.98;;;19.30;90.60;;;19.58;91.00;101161.41;5014129;28;20033;-79
2022/05/26 08:14:44;;;;;;;2.80;0.90;;;19.30;90.90;;;19.54;90.15;101169.56;5016524;28;20038;-81
2022/05/26 08:17:15;;;;;;;2.10;1.10;;;19.40;90.60;;;19.51;89.68;101169.72;5029840;28;20406;-80
2022/05/26 08:19:42;;;;;;;1.60;1.00;;;19.40;90.40;;;19.49;86.69;101171.59;5030681;28;20095;-81
2022/05/26 08:22:10;;;;;;;5.07;0.98;;;19.40;90.00;;;19.72;85.72;101169.59;5026667;28;20116;-81
2022/05/26 08:24:37;;;;;;;4.43;1.20;;;19.40;90.20;;;19.69;86.45;101183.09;5029925;28;20053;-82
2022/05/26 08:27:05;;;;;;;2.58;1.05;;;19.50;90.30;;;19.62;85.15;101171.00;5003775;28;20053;-80
2022/05/26 08:29:32;;;;;;;2.25;1.00;;;19.50;89.80;;;19.78;84.87;101179.09;5018083;28;20248;-81
2022/05/26 08:32:01;;;;;;;1.40;0.90;;;19.60;89.90;;;19.67;84.35;101175.19;5013333;28;20050;-80
2022/05/26 08:34:29;;;;;;;3.35;1.10;;;19.60;89.30;;;19.80;84.92;101185.22;4996760;28;20065;-79
2022/05/26 08:36:56;;;;;;;2.40;1.10;;;19.60;89.60;;;19.84;85.03;101184.16;5024698;28;20045;-78
2022/05/26 08:39:24;;;;;;;2.42;1.02;;;19.60;89.80;;;19.84;85.80;101185.00;5006932;28;20184;-79
2022/05/26 08:41:53;;;;;;;2.60;1.30;;;19.70;89.80;;;19.93;85.45;101186.38;5053337;28;20041;-79
2022/05/26 08:44:37;;;;;;;4.60;1.05;;;19.70;89.70;;;19.96;83.15;101190.72;5005750;28;20095;-80
2022/05/26 08:47:12;;;;;;;4.40;1.50;;;19.80;89.10;;;20.08;83.23;101190.09;5011944;28;20041;-80
2022/05/26 08:49:57;;;;;;;3.70;1.15;;;19.80;89.30;;;20.24;80.79;101205.34;5016390;28;20135;-81
2022/05/26 08:52:36;;;;;;;3.58;1.08;;;19.90;89.00;;;20.09;81.03;101193.59;5025021;28;20076;-80
2022/05/26 08:55:32;;;;;;;3.17;1.42;;;20.00;88.40;;;20.17;83.16;101196.75;5028920;28;20037;-80
2022/05/26 08:58:17;;;;;;;2.33;1.23;;;20.00;88.90;;;19.88;85.22;101201.75;5025827;28;20050;-80
2022/05/26 09:00:51;;;;;;;4.03;1.30;;;20.00;88.70;;;19.91;84.02;101187.38;5002927;28;20046;-80
2022/05/26 09:03:34;;;;;;;2.55;1.33;;;19.90;88.70;;;19.87;83.75;101215.16;5008294;28;20073;-79
2022/05/26 09:06:11;;;;;;;2.55;1.20;;;19.90;88.50;;;19.98;84.56;101211.06;5020160;28;20046;-79
2022/05/26 09:14:34;;;;;;;1.75;1.10;;;19.90;89.10;;;19.82;87.91;101216.25;5022855;28;20037;-78
2022/05/26 09:17:10;;;;;;;1.38;1.10;;;19.80;89.10;;;19.81;87.32;101213.66;5021687;28;20045;-79
2022/05/26 09:19:49;;;;;;;2.35;1.10;;;19.70;89.00;;;20.00;87.42;101205.63;5024028;28;20164;-80
2022/05/26 09:22:44;;;;;;;3.63;1.45;;;19.70;89.70;;;19.93;87.31;101212.22;5036730;28;20486;-78
2022/05/26 09:25:39;;;;;;;2.40;1.02;;;19.80;89.20;;;19.83;87.01;101219.81;5034847;28;20051;-80
2022/05/26 09:28:11;;;;;;;3.72;1.20;;;19.70;88.90;;;19.91;85.32;101211.41;5025255;28;20085;-79
2022/05/26 09:30:39;;;;;;;1.17;0.85;;;19.70;88.80;;;19.69;88.00;101218.69;5009516;28;20062;-78
2022/05/26 09:33:30;;;;;;;3.40;1.27;;;19.60;88.90;;;19.65;89.63;101221.56;5014720;28;20038;-76
2022/05/26 09:36:28;;;;;;;3.88;1.27;;;19.60;89.30;;;19.49;92.91;101227.66;5031368;28;20065;-76
2022/05/26 09:38:57;;;;;;;1.67;1.08;;;19.40;89.90;;;19.38;93.32;101220.16;5029364;28;20081;-79
2022/05/26 09:41:25;;;;;;;1.98;0.93;;;19.30;90.10;;;19.42;92.64;101220.84;5012221;28;20037;-80
2022/05/26 09:43:57;;;;;;;4.60;1.30;;;19.30;90.10;;;19.54;93.15;101222.94;5006512;28;20041;-78
2022/05/26 09:46:27;;;;;;;1.20;1.00;;;19.40;90.20;;;19.59;91.51;101230.72;5028426;28;20080;-77
2022/05/26 09:49:11;;;;;;;2.88;1.00;;;18.20;89.50;;;19.70;89.48;101235.53;4982609;28;20037;-78
2022/05/26 09:51:45;;;;;;;2.50;0.98;;;19.50;89.90;;;19.61;90.55;101242.19;5003953;28;20042;-78
2022/05/26 09:54:30;;;;;;;2.03;1.15;;;19.50;89.80;;;19.76;91.07;101248.63;5007578;28;20041;-78
2022/05/26 09:57:15;;;;;;;4.22;1.30;;;19.50;90.10;;;19.70;93.38;101232.88;5029481;28;20061;-79
2022/05/26 09:59:42;;;;;;;2.75;1.25;;;19.60;90.20;;;19.59;94.36;101244.06;5006315;28;20607;-78
2022/05/26 10:02:38;;;;;;;5.10;1.15;;;19.50;90.30;;;19.43;96.00;101251.94;4995597;28;20144;-79
2022/05/26 10:05:43;;;;;;;2.65;0.80;;;19.40;90.20;;;19.51;97.10;101239.13;5028983;28;20861;-75
2022/05/26 10:08:33;;;;;;;4.18;1.20;;;19.30;90.60;;;19.30;100.00;101257.00;5010888;28;20479;-76
2022/05/26 10:11:29;;;;;;;3.10;1.30;;;19.30;90.70;;;19.27;100.00;101257.16;5027808;28;20052;-75
2022/05/26 10:14:26;;;;;;;2.00;1.00;;;19.20;90.90;;;19.41;99.39;101253.81;5015258;28;20748;-72
2022/05/26 10:17:23;;;;;;;;;;;19.20;91.10;;;19.34;100.00;101255.91;5012171;28;20552;-73
2022/05/26 10:20:17;;;;;;;3.42;1.65;;;19.20;91.00;;;19.36;100.00;101250.50;5025457;28;19956;-72
2022/05/26 10:23:16;;;;;;;1.98;0.90;;;19.20;91.10;;;19.32;100.00;101256.94;5026803;28;20054;-72
2022/05/26 10:26:23;;;;;;;4.33;1.00;;;19.20;91.10;;;19.33;100.00;101262.19;5026305;28;20445;-72
2022/05/26 10:29:34;;;;;;;3.50;1.42;;;19.20;91.10;;;19.52;98.20;101264.00;5024208;28;20041;-72
2022/05/26 10:32:23;;;;;;;2.03;1.10;;;19.30;91.10;;;19.59;97.78;101257.44;5029297;28;20047;-73
2022/05/26 10:35:19;;;;;;;1.13;0.98;;;19.30;90.90;;;19.64;96.53;101257.22;5025556;28;20048;-73
2022/05/26 10:38:16;;;;;;;2.58;1.20;;;19.40;90.70;;;19.87;97.08;101263.22;5024326;28;20581;-75
2022/05/26 10:41:10;;;;;;;2.00;1.10;;;19.50;90.90;;;19.94;92.81;101262.03;5016874;28;20052;-78
2022/05/26 10:43:59;;;;;;;2.60;1.15;;;19.70;90.40;;;20.10;93.88;101254.97;5027289;28;20073;-76
2022/05/26 10:46:30;;;;;;;1.35;1.02;;;19.80;90.50;;;20.07;92.94;101241.78;5031682;28;20064;-77
2022/05/26 10:49:11;;;;;;;6.40;1.63;;;19.90;90.40;;;20.29;87.75;101246.03;5027130;28;20037;-79
2022/05/26 10:51:42;;;;;;;2.22;1.08;;;20.00;90.00;;;20.19;87.67;101252.78;5007938;28;20418;-79
2022/05/26 10:54:26;;;;;;;;;;;20.10;89.40;;;20.13;86.92;101253.94;5021744;28;20603;-78
2022/05/26 10:57:16;;;;;;;3.28;1.23;;;20.00;89.00;;;20.14;87.22;101242.34;4996344;28;20655;-79
2022/05/26 10:59:54;;;;;;;2.90;1.15;;;20.00;89.00;;;20.03;87.76;101250.88;5027384;28;20463;-78
2022/05/26 11:02:32;;;;;;;2.53;1.00;;;20.00;89.40;;;20.07;90.35;101239.13;4996057;28;20049;-78
2022/05/26 11:05:13;;;;;;;3.72;1.30;;;19.90;89.40;;;20.44;89.23;101243.50;5026845;28;20109;-78
2022/05/26 11:07:44;;;;;;;3.10;1.00;;;20.10;90.00;;;20.46;87.53;101242.50;5027791;28;20115;-78
2022/05/26 11:10:22;;;;;;;;;;;20.20;89.40;;;20.43;81.17;101242.63;5009038;28;20140;-78
2022/05/26 11:13:00;;;;;;;1.85;1.00;;;20.20;87.90;;;20.57;79.88;101247.28;5006736;28;19994;-77